sensor_id;sensor_type;location;lat;lon;timestamp;P1;durP1;ratioP1;P2;durP2;ratioP2
56345;SDS011;42246;46.096;13.644;2024-03-02T00:00:35;3.92;;;1.50;;
56345;SDS011;42246;46.096;13.644;2024-03-02T00:03:02;3.22;;;1.90;;
56345;SDS011;42246;46.096;13.644;2024-03-02T00:05:31;9.07;;;2.72;;
56345;SDS011;42246;46.096;13.644;2024-03-02T00:07:59;3.70;;;1.23;;
56345;SDS011;42246;46.096;13.644;2024-03-02T00:10:25;6.65;;;2.13;;
56345;SDS011;42246;46.096;13.644;2024-03-02T00:13:02;7.20;;;1.88;;
56345;SDS011;42246;46.096;13.644;2024-03-02T00:18:14;2.35;;;1.55;;
56345;SDS011;42246;46.096;13.644;2024-03-02T00:20:44;1.85;;;1.17;;
56345;SDS011;42246;46.096;13.644;2024-03-02T00:23:10;6.53;;;2.40;;
56345;SDS011;42246;46.096;13.644;2024-03-02T00:25:41;3.88;;;1.83;;
56345;SDS011;42246;46.096;13.644;2024-03-02T00:28:23;3.60;;;1.90;;
56345;SDS011;42246;46.096;13.644;2024-03-02T00:33:42;7.28;;;2.28;;
56345;SDS011;42246;46.096;13.644;2024-03-02T00:36:12;8.50;;;2.08;;
56345;SDS011;42246;46.096;13.644;2024-03-02T00:38:42;2.45;;;1.85;;
56345;SDS011;42246;46.096;13.644;2024-03-02T00:41:17;3.17;;;1.90;;
56345;SDS011;42246;46.096;13.644;2024-03-02T00:46:16;3.60;;;2.05;;
56345;SDS011;42246;46.096;13.644;2024-03-02T00:51:19;3.90;;;2.20;;
56345;SDS011;42246;46.096;13.644;2024-03-02T00:53:45;3.38;;;1.52;;
56345;SDS011;42246;46.096;13.644;2024-03-02T00:56:10;4.65;;;1.35;;
56345;SDS011;42246;46.096;13.644;2024-03-02T00:58:37;3.08;;;1.38;;
56345;SDS011;42246;46.096;13.644;2024-03-02T01:01:03;2.05;;;1.40;;
56345;SDS011;42246;46.096;13.644;2024-03-02T01:03:29;2.88;;;1.65;;
56345;SDS011;42246;46.096;13.644;2024-03-02T01:05:55;2.58;;;1.92;;
56345;SDS011;42246;46.096;13.644;2024-03-02T01:08:20;4.40;;;1.33;;
56345;SDS011;42246;46.096;13.644;2024-03-02T01:10:46;5.78;;;1.33;;
56345;SDS011;42246;46.096;13.644;2024-03-02T01:13:11;1.70;;;1.00;;
56345;SDS011;42246;46.096;13.644;2024-03-02T01:15:37;3.22;;;1.67;;
56345;SDS011;42246;46.096;13.644;2024-03-02T01:18:02;3.50;;;1.52;;
56345;SDS011;42246;46.096;13.644;2024-03-02T01:20:28;1.83;;;0.98;;
56345;SDS011;42246;46.096;13.644;2024-03-02T01:22:53;2.35;;;1.42;;
56345;SDS011;42246;46.096;13.644;2024-03-02T01:25:19;6.00;;;1.75;;
56345;SDS011;42246;46.096;13.644;2024-03-02T01:27:44;2.15;;;1.42;;
56345;SDS011;42246;46.096;13.644;2024-03-02T01:30:10;3.90;;;1.42;;
56345;SDS011;42246;46.096;13.644;2024-03-02T01:32:37;1.15;;;0.95;;
56345;SDS011;42246;46.096;13.644;2024-03-02T01:35:03;2.63;;;1.40;;
56345;SDS011;42246;46.096;13.644;2024-03-02T01:37:29;4.78;;;1.10;;
56345;SDS011;42246;46.096;13.644;2024-03-02T01:39:55;2.83;;;1.20;;
56345;SDS011;42246;46.096;13.644;2024-03-02T01:42:20;2.22;;;1.13;;
56345;SDS011;42246;46.096;13.644;2024-03-02T01:44:46;4.15;;;1.15;;
56345;SDS011;42246;46.096;13.644;2024-03-02T01:47:11;7.03;;;1.58;;
56345;SDS011;42246;46.096;13.644;2024-03-02T01:49:37;4.07;;;1.38;;
56345;SDS011;42246;46.096;13.644;2024-03-02T01:52:04;6.30;;;1.15;;
56345;SDS011;42246;46.096;13.644;2024-03-02T01:54:29;4.05;;;1.38;;
56345;SDS011;42246;46.096;13.644;2024-03-02T01:56:55;2.38;;;1.13;;
56345;SDS011;42246;46.096;13.644;2024-03-02T01:59:20;1.42;;;1.15;;
56345;SDS011;42246;46.096;13.644;2024-03-02T02:01:46;1.55;;;0.98;;
56345;SDS011;42246;46.096;13.644;2024-03-02T02:04:11;1.00;;;0.70;;
56345;SDS011;42246;46.096;13.644;2024-03-02T02:06:38;1.90;;;1.27;;
56345;SDS011;42246;46.096;13.644;2024-03-02T02:09:04;2.45;;;1.55;;
56345;SDS011;42246;46.096;13.644;2024-03-02T02:11:29;5.00;;;1.63;;
56345;SDS011;42246;46.096;13.644;2024-03-02T02:13:55;2.08;;;1.33;;
56345;SDS011;42246;46.096;13.644;2024-03-02T02:16:23;2.10;;;0.90;;
56345;SDS011;42246;46.096;13.644;2024-03-02T02:18:48;2.20;;;1.13;;
56345;SDS011;42246;46.096;13.644;2024-03-02T02:21:14;3.63;;;1.00;;
56345;SDS011;42246;46.096;13.644;2024-03-02T02:23:39;4.10;;;1.00;;
56345;SDS011;42246;46.096;13.644;2024-03-02T02:26:05;1.85;;;0.88;;
56345;SDS011;42246;46.096;13.644;2024-03-02T02:28:30;1.38;;;0.60;;
56345;SDS011;42246;46.096;13.644;2024-03-02T02:30:56;1.83;;;0.95;;
56345;SDS011;42246;46.096;13.644;2024-03-02T02:33:22;1.17;;;0.80;;
56345;SDS011;42246;46.096;13.644;2024-03-02T02:35:47;4.30;;;0.75;;
56345;SDS011;42246;46.096;13.644;2024-03-02T02:38:13;1.00;;;0.70;;
56345;SDS011;42246;46.096;13.644;2024-03-02T02:40:38;1.02;;;0.60;;
56345;SDS011;42246;46.096;13.644;2024-03-02T02:43:04;3.95;;;0.73;;
56345;SDS011;42246;46.096;13.644;2024-03-02T02:45:29;5.68;;;0.63;;
56345;SDS011;42246;46.096;13.644;2024-03-02T02:47:55;4.68;;;0.88;;
56345;SDS011;42246;46.096;13.644;2024-03-02T02:50:21;3.03;;;1.33;;
56345;SDS011;42246;46.096;13.644;2024-03-02T02:52:46;2.45;;;1.10;;
56345;SDS011;42246;46.096;13.644;2024-03-02T02:55:12;3.15;;;0.93;;
56345;SDS011;42246;46.096;13.644;2024-03-02T02:57:39;2.95;;;0.70;;
56345;SDS011;42246;46.096;13.644;2024-03-02T03:00:10;2.95;;;0.50;;
56345;SDS011;42246;46.096;13.644;2024-03-02T03:02:42;3.63;;;0.85;;
56345;SDS011;42246;46.096;13.644;2024-03-02T03:05:09;2.65;;;0.88;;
56345;SDS011;42246;46.096;13.644;2024-03-02T03:07:35;1.05;;;0.70;;
56345;SDS011;42246;46.096;13.644;2024-03-02T03:10:01;0.57;;;0.57;;
56345;SDS011;42246;46.096;13.644;2024-03-02T03:12:28;2.75;;;0.85;;
56345;SDS011;42246;46.096;13.644;2024-03-02T03:14:53;2.35;;;0.90;;
56345;SDS011;42246;46.096;13.644;2024-03-02T03:17:20;1.85;;;0.75;;
56345;SDS011;42246;46.096;13.644;2024-03-02T03:19:46;3.65;;;1.17;;
56345;SDS011;42246;46.096;13.644;2024-03-02T03:22:12;1.65;;;0.60;;
56345;SDS011;42246;46.096;13.644;2024-03-02T03:24:38;2.10;;;0.95;;
56345;SDS011;42246;46.096;13.644;2024-03-02T03:27:03;8.18;;;1.30;;
56345;SDS011;42246;46.096;13.644;2024-03-02T03:29:29;3.45;;;0.73;;
56345;SDS011;42246;46.096;13.644;2024-03-02T03:31:54;4.93;;;0.85;;
56345;SDS011;42246;46.096;13.644;2024-03-02T03:34:20;1.15;;;0.75;;
56345;SDS011;42246;46.096;13.644;2024-03-02T03:36:45;7.13;;;0.93;;
56345;SDS011;42246;46.096;13.644;2024-03-02T03:39:11;1.33;;;0.70;;
56345;SDS011;42246;46.096;13.644;2024-03-02T03:41:36;1.77;;;0.60;;
56345;SDS011;42246;46.096;13.644;2024-03-02T03:44:02;2.88;;;0.82;;
56345;SDS011;42246;46.096;13.644;2024-03-02T03:46:28;3.15;;;1.05;;
56345;SDS011;42246;46.096;13.644;2024-03-02T03:48:54;5.35;;;0.90;;
56345;SDS011;42246;46.096;13.644;2024-03-02T03:51:21;1.58;;;0.52;;
56345;SDS011;42246;46.096;13.644;2024-03-02T03:53:47;1.30;;;0.50;;
56345;SDS011;42246;46.096;13.644;2024-03-02T03:56:13;2.35;;;1.02;;
56345;SDS011;42246;46.096;13.644;2024-03-02T03:58:39;7.25;;;1.02;;
56345;SDS011;42246;46.096;13.644;2024-03-02T04:01:04;2.03;;;0.80;;
56345;SDS011;42246;46.096;13.644;2024-03-02T04:03:29;7.63;;;1.00;;
56345;SDS011;42246;46.096;13.644;2024-03-02T04:05:55;2.00;;;0.75;;
56345;SDS011;42246;46.096;13.644;2024-03-02T04:08:21;3.60;;;0.82;;
56345;SDS011;42246;46.096;13.644;2024-03-02T04:10:46;6.65;;;0.55;;
56345;SDS011;42246;46.096;13.644;2024-03-02T04:13:12;2.38;;;0.82;;
56345;SDS011;42246;46.096;13.644;2024-03-02T04:15:37;2.65;;;0.45;;
56345;SDS011;42246;46.096;13.644;2024-03-02T04:18:03;1.80;;;0.88;;
56345;SDS011;42246;46.096;13.644;2024-03-02T04:20:29;1.45;;;0.60;;
56345;SDS011;42246;46.096;13.644;2024-03-02T04:22:55;4.57;;;1.23;;
56345;SDS011;42246;46.096;13.644;2024-03-02T04:25:20;10.18;;;1.73;;
56345;SDS011;42246;46.096;13.644;2024-03-02T04:27:46;4.20;;;0.70;;
56345;SDS011;42246;46.096;13.644;2024-03-02T04:30:12;3.03;;;1.00;;
56345;SDS011;42246;46.096;13.644;2024-03-02T04:32:37;1.85;;;0.80;;
56345;SDS011;42246;46.096;13.644;2024-03-02T04:35:04;1.52;;;1.00;;
56345;SDS011;42246;46.096;13.644;2024-03-02T04:37:31;2.55;;;0.90;;
56345;SDS011;42246;46.096;13.644;2024-03-02T04:39:59;3.70;;;1.10;;
56345;SDS011;42246;46.096;13.644;2024-03-02T04:42:24;5.03;;;0.77;;
56345;SDS011;42246;46.096;13.644;2024-03-02T04:44:50;1.52;;;0.85;;
56345;SDS011;42246;46.096;13.644;2024-03-02T04:47:15;2.75;;;1.15;;
56345;SDS011;42246;46.096;13.644;2024-03-02T04:49:41;1.33;;;0.47;;
56345;SDS011;42246;46.096;13.644;2024-03-02T04:52:06;3.70;;;1.80;;
56345;SDS011;42246;46.096;13.644;2024-03-02T04:54:31;4.53;;;1.00;;
56345;SDS011;42246;46.096;13.644;2024-03-02T04:56:57;2.33;;;0.80;;
56345;SDS011;42246;46.096;13.644;2024-03-02T04:59:23;4.07;;;1.23;;
56345;SDS011;42246;46.096;13.644;2024-03-02T05:01:48;4.45;;;1.10;;
56345;SDS011;42246;46.096;13.644;2024-03-02T05:04:14;1.08;;;0.60;;
56345;SDS011;42246;46.096;13.644;2024-03-02T05:06:40;1.20;;;0.93;;
56345;SDS011;42246;46.096;13.644;2024-03-02T05:09:06;3.25;;;0.80;;
56345;SDS011;42246;46.096;13.644;2024-03-02T05:11:32;5.90;;;1.17;;
56345;SDS011;42246;46.096;13.644;2024-03-02T05:14:21;1.90;;;1.02;;
56345;SDS011;42246;46.096;13.644;2024-03-02T05:16:47;3.20;;;0.65;;
56345;SDS011;42246;46.096;13.644;2024-03-02T05:19:12;6.13;;;1.23;;
56345;SDS011;42246;46.096;13.644;2024-03-02T05:21:38;2.72;;;0.82;;
56345;SDS011;42246;46.096;13.644;2024-03-02T05:24:03;1.00;;;0.60;;
56345;SDS011;42246;46.096;13.644;2024-03-02T05:26:29;1.45;;;1.27;;
56345;SDS011;42246;46.096;13.644;2024-03-02T05:28:54;3.58;;;1.50;;
56345;SDS011;42246;46.096;13.644;2024-03-02T05:31:20;2.70;;;1.48;;
56345;SDS011;42246;46.096;13.644;2024-03-02T05:33:46;6.45;;;3.13;;
56345;SDS011;42246;46.096;13.644;2024-03-02T05:36:11;3.05;;;1.50;;
56345;SDS011;42246;46.096;13.644;2024-03-02T05:38:37;1.45;;;0.95;;
56345;SDS011;42246;46.096;13.644;2024-03-02T05:41:03;1.88;;;0.80;;
56345;SDS011;42246;46.096;13.644;2024-03-02T05:43:28;5.40;;;1.10;;
56345;SDS011;42246;46.096;13.644;2024-03-02T05:45:54;6.25;;;1.25;;
56345;SDS011;42246;46.096;13.644;2024-03-02T05:48:20;2.47;;;1.00;;
56345;SDS011;42246;46.096;13.644;2024-03-02T05:50:45;1.83;;;1.50;;
56345;SDS011;42246;46.096;13.644;2024-03-02T05:53:11;3.40;;;1.13;;
56345;SDS011;42246;46.096;13.644;2024-03-02T05:55:36;0.60;;;0.43;;
56345;SDS011;42246;46.096;13.644;2024-03-02T05:58:02;6.90;;;1.90;;
56345;SDS011;42246;46.096;13.644;2024-03-02T06:00:45;2.63;;;1.63;;
56345;SDS011;42246;46.096;13.644;2024-03-02T06:03:11;3.17;;;1.35;;
56345;SDS011;42246;46.096;13.644;2024-03-02T06:05:36;2.10;;;1.20;;
56345;SDS011;42246;46.096;13.644;2024-03-02T06:08:02;1.95;;;1.08;;
56345;SDS011;42246;46.096;13.644;2024-03-02T06:10:27;2.75;;;0.95;;
56345;SDS011;42246;46.096;13.644;2024-03-02T06:12:53;2.75;;;1.20;;
56345;SDS011;42246;46.096;13.644;2024-03-02T06:15:18;1.85;;;0.93;;
56345;SDS011;42246;46.096;13.644;2024-03-02T06:17:44;7.05;;;1.42;;
56345;SDS011;42246;46.096;13.644;2024-03-02T06:20:09;2.47;;;1.10;;
56345;SDS011;42246;46.096;13.644;2024-03-02T06:22:35;2.83;;;0.90;;
56345;SDS011;42246;46.096;13.644;2024-03-02T06:25:01;6.03;;;2.17;;
56345;SDS011;42246;46.096;13.644;2024-03-02T06:27:26;1.95;;;1.20;;
56345;SDS011;42246;46.096;13.644;2024-03-02T06:29:52;1.90;;;0.80;;
56345;SDS011;42246;46.096;13.644;2024-03-02T06:32:17;2.90;;;1.13;;
56345;SDS011;42246;46.096;13.644;2024-03-02T06:34:43;3.53;;;2.33;;
56345;SDS011;42246;46.096;13.644;2024-03-02T06:37:08;5.53;;;2.47;;
56345;SDS011;42246;46.096;13.644;2024-03-02T06:39:33;1.60;;;1.23;;
56345;SDS011;42246;46.096;13.644;2024-03-02T06:41:59;2.13;;;1.10;;
56345;SDS011;42246;46.096;13.644;2024-03-02T06:44:25;2.38;;;1.25;;
56345;SDS011;42246;46.096;13.644;2024-03-02T06:46:51;2.13;;;0.80;;
56345;SDS011;42246;46.096;13.644;2024-03-02T06:49:16;2.97;;;1.23;;
56345;SDS011;42246;46.096;13.644;2024-03-02T06:51:43;6.72;;;1.20;;
56345;SDS011;42246;46.096;13.644;2024-03-02T06:54:09;4.35;;;1.15;;
56345;SDS011;42246;46.096;13.644;2024-03-02T06:56:34;2.72;;;1.35;;
56345;SDS011;42246;46.096;13.644;2024-03-02T06:59:00;3.35;;;0.95;;
56345;SDS011;42246;46.096;13.644;2024-03-02T07:01:25;2.42;;;0.75;;
56345;SDS011;42246;46.096;13.644;2024-03-02T07:03:51;1.88;;;0.90;;
56345;SDS011;42246;46.096;13.644;2024-03-02T07:06:17;2.17;;;1.00;;
56345;SDS011;42246;46.096;13.644;2024-03-02T07:08:42;2.17;;;1.17;;
56345;SDS011;42246;46.096;13.644;2024-03-02T07:11:08;1.67;;;0.73;;
56345;SDS011;42246;46.096;13.644;2024-03-02T07:13:34;2.50;;;1.90;;
56345;SDS011;42246;46.096;13.644;2024-03-02T07:16:00;2.38;;;1.50;;
56345;SDS011;42246;46.096;13.644;2024-03-02T07:18:29;5.95;;;1.20;;
56345;SDS011;42246;46.096;13.644;2024-03-02T07:20:55;2.08;;;1.10;;
56345;SDS011;42246;46.096;13.644;2024-03-02T07:23:23;4.05;;;0.93;;
56345;SDS011;42246;46.096;13.644;2024-03-02T07:25:52;2.22;;;0.82;;
56345;SDS011;42246;46.096;13.644;2024-03-02T07:28:21;2.60;;;1.13;;
56345;SDS011;42246;46.096;13.644;2024-03-02T07:31:05;2.50;;;1.40;;
56345;SDS011;42246;46.096;13.644;2024-03-02T07:33:30;6.88;;;1.70;;
56345;SDS011;42246;46.096;13.644;2024-03-02T07:35:57;3.08;;;0.93;;
56345;SDS011;42246;46.096;13.644;2024-03-02T07:38:24;2.13;;;1.45;;
56345;SDS011;42246;46.096;13.644;2024-03-02T07:40:50;2.17;;;1.30;;
56345;SDS011;42246;46.096;13.644;2024-03-02T07:43:16;2.75;;;1.52;;
56345;SDS011;42246;46.096;13.644;2024-03-02T07:45:42;1.75;;;1.27;;
56345;SDS011;42246;46.096;13.644;2024-03-02T07:48:08;3.20;;;1.38;;
56345;SDS011;42246;46.096;13.644;2024-03-02T07:50:34;2.45;;;0.93;;
56345;SDS011;42246;46.096;13.644;2024-03-02T07:53:00;1.02;;;0.60;;
56345;SDS011;42246;46.096;13.644;2024-03-02T07:55:26;1.27;;;0.73;;
56345;SDS011;42246;46.096;13.644;2024-03-02T07:57:52;2.28;;;1.25;;
56345;SDS011;42246;46.096;13.644;2024-03-02T08:00:17;4.93;;;1.42;;
56345;SDS011;42246;46.096;13.644;2024-03-02T08:02:43;4.45;;;0.98;;
56345;SDS011;42246;46.096;13.644;2024-03-02T08:05:09;5.82;;;1.50;;
56345;SDS011;42246;46.096;13.644;2024-03-02T08:07:34;2.03;;;0.95;;
56345;SDS011;42246;46.096;13.644;2024-03-02T08:10:00;2.22;;;1.05;;
56345;SDS011;42246;46.096;13.644;2024-03-02T08:12:25;3.80;;;1.25;;
56345;SDS011;42246;46.096;13.644;2024-03-02T08:14:51;8.35;;;1.13;;
56345;SDS011;42246;46.096;13.644;2024-03-02T08:17:18;3.97;;;1.38;;
56345;SDS011;42246;46.096;13.644;2024-03-02T08:19:44;3.17;;;1.23;;
56345;SDS011;42246;46.096;13.644;2024-03-02T08:22:09;4.40;;;1.27;;
56345;SDS011;42246;46.096;13.644;2024-03-02T08:24:35;5.88;;;1.27;;
56345;SDS011;42246;46.096;13.644;2024-03-02T08:27:01;1.42;;;1.05;;
56345;SDS011;42246;46.096;13.644;2024-03-02T08:29:26;1.65;;;1.20;;
56345;SDS011;42246;46.096;13.644;2024-03-02T08:31:53;3.35;;;1.20;;
56345;SDS011;42246;46.096;13.644;2024-03-02T08:34:18;2.15;;;1.42;;
56345;SDS011;42246;46.096;13.644;2024-03-02T08:36:44;3.53;;;1.30;;
56345;SDS011;42246;46.096;13.644;2024-03-02T08:39:10;3.15;;;1.58;;
56345;SDS011;42246;46.096;13.644;2024-03-02T08:41:41;2.45;;;2.03;;
56345;SDS011;42246;46.096;13.644;2024-03-02T08:44:08;7.75;;;1.50;;
56345;SDS011;42246;46.096;13.644;2024-03-02T08:46:34;2.35;;;1.60;;
56345;SDS011;42246;46.096;13.644;2024-03-02T08:48:59;1.40;;;0.90;;
56345;SDS011;42246;46.096;13.644;2024-03-02T08:51:25;2.40;;;1.75;;
56345;SDS011;42246;46.096;13.644;2024-03-02T08:53:50;4.70;;;1.27;;
56345;SDS011;42246;46.096;13.644;2024-03-02T08:56:16;2.53;;;0.85;;
56345;SDS011;42246;46.096;13.644;2024-03-02T08:58:41;4.35;;;2.63;;
56345;SDS011;42246;46.096;13.644;2024-03-02T09:01:08;2.90;;;1.58;;
56345;SDS011;42246;46.096;13.644;2024-03-02T09:03:34;1.25;;;0.75;;
56345;SDS011;42246;46.096;13.644;2024-03-02T09:06:00;1.67;;;1.08;;
56345;SDS011;42246;46.096;13.644;2024-03-02T09:08:26;5.20;;;1.65;;
56345;SDS011;42246;46.096;13.644;2024-03-02T09:10:51;3.20;;;1.20;;
56345;SDS011;42246;46.096;13.644;2024-03-02T09:13:17;2.83;;;1.55;;
56345;SDS011;42246;46.096;13.644;2024-03-02T09:15:43;4.20;;;1.50;;
56345;SDS011;42246;46.096;13.644;2024-03-02T09:18:09;5.68;;;1.30;;
56345;SDS011;42246;46.096;13.644;2024-03-02T09:20:35;8.55;;;1.90;;
56345;SDS011;42246;46.096;13.644;2024-03-02T09:23:00;4.18;;;1.60;;
56345;SDS011;42246;46.096;13.644;2024-03-02T09:25:26;2.63;;;1.10;;
56345;SDS011;42246;46.096;13.644;2024-03-02T09:27:51;2.20;;;1.63;;
56345;SDS011;42246;46.096;13.644;2024-03-02T09:30:17;3.05;;;2.28;;
56345;SDS011;42246;46.096;13.644;2024-03-02T09:32:43;7.38;;;1.85;;
56345;SDS011;42246;46.096;13.644;2024-03-02T09:35:08;5.07;;;1.42;;
56345;SDS011;42246;46.096;13.644;2024-03-02T09:37:37;9.30;;;2.75;;
56345;SDS011;42246;46.096;13.644;2024-03-02T09:40:02;6.18;;;2.40;;
56345;SDS011;42246;46.096;13.644;2024-03-02T09:42:29;2.42;;;1.48;;
56345;SDS011;42246;46.096;13.644;2024-03-02T09:44:57;6.85;;;1.85;;
56345;SDS011;42246;46.096;13.644;2024-03-02T09:47:22;4.70;;;2.15;;
56345;SDS011;42246;46.096;13.644;2024-03-02T09:49:48;3.88;;;1.63;;
56345;SDS011;42246;46.096;13.644;2024-03-02T09:52:14;3.08;;;1.58;;
56345;SDS011;42246;46.096;13.644;2024-03-02T09:54:40;4.10;;;1.98;;
56345;SDS011;42246;46.096;13.644;2024-03-02T09:57:05;4.88;;;2.17;;
56345;SDS011;42246;46.096;13.644;2024-03-02T09:59:31;2.42;;;1.45;;
56345;SDS011;42246;46.096;13.644;2024-03-02T10:01:57;4.97;;;1.77;;
56345;SDS011;42246;46.096;13.644;2024-03-02T10:04:26;2.95;;;1.73;;
56345;SDS011;42246;46.096;13.644;2024-03-02T10:07:14;2.30;;;1.27;;
56345;SDS011;42246;46.096;13.644;2024-03-02T10:09:42;3.47;;;2.28;;
56345;SDS011;42246;46.096;13.644;2024-03-02T10:12:09;4.03;;;2.28;;
56345;SDS011;42246;46.096;13.644;2024-03-02T10:14:36;3.30;;;2.08;;
56345;SDS011;42246;46.096;13.644;2024-03-02T10:17:03;4.47;;;1.98;;
56345;SDS011;42246;46.096;13.644;2024-03-02T10:19:29;4.88;;;2.05;;
56345;SDS011;42246;46.096;13.644;2024-03-02T10:21:58;4.32;;;2.28;;
56345;SDS011;42246;46.096;13.644;2024-03-02T10:24:24;2.95;;;1.83;;
56345;SDS011;42246;46.096;13.644;2024-03-02T10:26:50;5.05;;;2.60;;
56345;SDS011;42246;46.096;13.644;2024-03-02T10:29:16;4.35;;;2.60;;
56345;SDS011;42246;46.096;13.644;2024-03-02T10:31:43;4.20;;;2.03;;
56345;SDS011;42246;46.096;13.644;2024-03-02T10:34:11;5.68;;;3.58;;
56345;SDS011;42246;46.096;13.644;2024-03-02T10:36:37;4.40;;;1.85;;
56345;SDS011;42246;46.096;13.644;2024-03-02T10:39:06;4.53;;;2.15;;
56345;SDS011;42246;46.096;13.644;2024-03-02T10:41:33;3.08;;;1.30;;
56345;SDS011;42246;46.096;13.644;2024-03-02T10:44:03;8.45;;;3.03;;
56345;SDS011;42246;46.096;13.644;2024-03-02T10:46:29;4.15;;;1.65;;
56345;SDS011;42246;46.096;13.644;2024-03-02T10:48:59;2.15;;;1.50;;
56345;SDS011;42246;46.096;13.644;2024-03-02T10:51:29;6.00;;;1.50;;
56345;SDS011;42246;46.096;13.644;2024-03-02T10:54:01;5.13;;;3.00;;
56345;SDS011;42246;46.096;13.644;2024-03-02T10:56:29;3.13;;;2.00;;
56345;SDS011;42246;46.096;13.644;2024-03-02T11:01:55;3.78;;;1.80;;
56345;SDS011;42246;46.096;13.644;2024-03-02T11:04:28;3.25;;;2.10;;
56345;SDS011;42246;46.096;13.644;2024-03-02T11:09:31;4.13;;;1.52;;
56345;SDS011;42246;46.096;13.644;2024-03-02T11:15:03;3.03;;;1.60;;
56345;SDS011;42246;46.096;13.644;2024-03-02T11:17:32;3.65;;;1.85;;
56345;SDS011;42246;46.096;13.644;2024-03-02T11:19:57;4.03;;;1.92;;
56345;SDS011;42246;46.096;13.644;2024-03-02T11:22:23;3.38;;;1.60;;
56345;SDS011;42246;46.096;13.644;2024-03-02T11:24:49;2.53;;;1.35;;
56345;SDS011;42246;46.096;13.644;2024-03-02T11:27:58;2.28;;;2.05;;
56345;SDS011;42246;46.096;13.644;2024-03-02T11:30:23;2.30;;;1.33;;
56345;SDS011;42246;46.096;13.644;2024-03-02T11:32:59;3.50;;;1.58;;
56345;SDS011;42246;46.096;13.644;2024-03-02T11:35:41;2.65;;;2.25;;
56345;SDS011;42246;46.096;13.644;2024-03-02T11:38:12;4.50;;;2.22;;
56345;SDS011;42246;46.096;13.644;2024-03-02T11:40:41;4.75;;;2.28;;
56345;SDS011;42246;46.096;13.644;2024-03-02T11:43:07;3.10;;;2.38;;
56345;SDS011;42246;46.096;13.644;2024-03-02T11:45:36;4.28;;;2.00;;
56345;SDS011;42246;46.096;13.644;2024-03-02T11:48:05;3.40;;;2.60;;
56345;SDS011;42246;46.096;13.644;2024-03-02T11:50:35;3.00;;;2.05;;
56345;SDS011;42246;46.096;13.644;2024-03-02T11:53:03;6.35;;;2.47;;
56345;SDS011;42246;46.096;13.644;2024-03-02T11:55:36;3.13;;;2.10;;
56345;SDS011;42246;46.096;13.644;2024-03-02T11:58:03;3.28;;;1.90;;
56345;SDS011;42246;46.096;13.644;2024-03-02T12:00:29;4.32;;;1.88;;
56345;SDS011;42246;46.096;13.644;2024-03-02T12:03:04;6.10;;;1.90;;
56345;SDS011;42246;46.096;13.644;2024-03-02T12:05:33;2.80;;;1.48;;
56345;SDS011;42246;46.096;13.644;2024-03-02T12:08:00;2.33;;;1.55;;
56345;SDS011;42246;46.096;13.644;2024-03-02T12:10:27;3.10;;;1.52;;
56345;SDS011;42246;46.096;13.644;2024-03-02T12:12:59;2.90;;;1.63;;
56345;SDS011;42246;46.096;13.644;2024-03-02T12:15:29;3.78;;;1.65;;
56345;SDS011;42246;46.096;13.644;2024-03-02T12:17:57;4.85;;;1.70;;
56345;SDS011;42246;46.096;13.644;2024-03-02T12:20:27;3.05;;;1.20;;
56345;SDS011;42246;46.096;13.644;2024-03-02T12:22:54;3.00;;;1.23;;
56345;SDS011;42246;46.096;13.644;2024-03-02T12:25:21;5.07;;;1.70;;
56345;SDS011;42246;46.096;13.644;2024-03-02T12:27:48;2.78;;;1.55;;
56345;SDS011;42246;46.096;13.644;2024-03-02T12:30:16;2.38;;;1.35;;
56345;SDS011;42246;46.096;13.644;2024-03-02T12:32:42;2.88;;;0.90;;
56345;SDS011;42246;46.096;13.644;2024-03-02T12:35:08;4.50;;;1.33;;
56345;SDS011;42246;46.096;13.644;2024-03-02T12:37:41;1.92;;;1.13;;
56345;SDS011;42246;46.096;13.644;2024-03-02T12:40:13;2.72;;;1.17;;
56345;SDS011;42246;46.096;13.644;2024-03-02T12:42:40;2.30;;;1.27;;
56345;SDS011;42246;46.096;13.644;2024-03-02T12:45:07;1.92;;;0.50;;
56345;SDS011;42246;46.096;13.644;2024-03-02T12:47:33;3.20;;;0.88;;
56345;SDS011;42246;46.096;13.644;2024-03-02T12:49:59;3.03;;;0.75;;
56345;SDS011;42246;46.096;13.644;2024-03-02T12:52:25;2.40;;;1.17;;
56345;SDS011;42246;46.096;13.644;2024-03-02T12:54:50;1.45;;;0.52;;
56345;SDS011;42246;46.096;13.644;2024-03-02T12:57:20;1.50;;;0.77;;
56345;SDS011;42246;46.096;13.644;2024-03-02T12:59:46;2.10;;;0.70;;
56345;SDS011;42246;46.096;13.644;2024-03-02T13:02:18;1.75;;;0.90;;
56345;SDS011;42246;46.096;13.644;2024-03-02T13:04:44;2.03;;;0.77;;
56345;SDS011;42246;46.096;13.644;2024-03-02T13:07:10;1.60;;;0.68;;
56345;SDS011;42246;46.096;13.644;2024-03-02T13:09:38;0.98;;;0.47;;
56345;SDS011;42246;46.096;13.644;2024-03-02T13:12:04;0.95;;;0.77;;
56345;SDS011;42246;46.096;13.644;2024-03-02T13:14:32;1.65;;;0.60;;
56345;SDS011;42246;46.096;13.644;2024-03-02T13:16:58;1.63;;;0.60;;
56345;SDS011;42246;46.096;13.644;2024-03-02T13:19:25;2.25;;;0.65;;
56345;SDS011;42246;46.096;13.644;2024-03-02T13:21:50;2.78;;;1.35;;
56345;SDS011;42246;46.096;13.644;2024-03-02T13:24:16;0.63;;;0.40;;
56345;SDS011;42246;46.096;13.644;2024-03-02T13:26:41;1.08;;;0.50;;
56345;SDS011;42246;46.096;13.644;2024-03-02T13:29:07;1.55;;;0.50;;
56345;SDS011;42246;46.096;13.644;2024-03-02T13:31:33;3.90;;;0.60;;
56345;SDS011;42246;46.096;13.644;2024-03-02T13:33:58;0.45;;;0.40;;
56345;SDS011;42246;46.096;13.644;2024-03-02T13:36:24;1.02;;;0.65;;
56345;SDS011;42246;46.096;13.644;2024-03-02T13:38:49;2.08;;;0.40;;
56345;SDS011;42246;46.096;13.644;2024-03-02T13:41:15;3.42;;;0.40;;
56345;SDS011;42246;46.096;13.644;2024-03-02T13:43:40;0.20;;;0.10;;
56345;SDS011;42246;46.096;13.644;2024-03-02T13:46:06;0.85;;;0.40;;
56345;SDS011;42246;46.096;13.644;2024-03-02T13:48:31;0.93;;;0.20;;
56345;SDS011;42246;46.096;13.644;2024-03-02T13:50:57;0.30;;;0.20;;
56345;SDS011;42246;46.096;13.644;2024-03-02T13:53:22;5.90;;;0.63;;
56345;SDS011;42246;46.096;13.644;2024-03-02T13:55:48;3.67;;;0.40;;
56345;SDS011;42246;46.096;13.644;2024-03-02T13:58:14;1.75;;;0.25;;
56345;SDS011;42246;46.096;13.644;2024-03-02T14:00:39;1.05;;;0.30;;
56345;SDS011;42246;46.096;13.644;2024-03-02T14:03:08;0.43;;;0.30;;
56345;SDS011;42246;46.096;13.644;2024-03-02T14:05:34;0.75;;;0.40;;
56345;SDS011;42246;46.096;13.644;2024-03-02T14:07:59;1.20;;;0.70;;
56345;SDS011;42246;46.096;13.644;2024-03-02T14:10:28;7.00;;;0.80;;
56345;SDS011;42246;46.096;13.644;2024-03-02T14:12:59;1.45;;;0.63;;
56345;SDS011;42246;46.096;13.644;2024-03-02T14:15:27;3.97;;;1.83;;
56345;SDS011;42246;46.096;13.644;2024-03-02T14:17:55;3.65;;;1.35;;
56345;SDS011;42246;46.096;13.644;2024-03-02T14:20:20;1.50;;;0.77;;
56345;SDS011;42246;46.096;13.644;2024-03-02T14:22:47;2.53;;;1.30;;
56345;SDS011;42246;46.096;13.644;2024-03-02T14:25:13;4.80;;;3.70;;
56345;SDS011;42246;46.096;13.644;2024-03-02T14:27:39;2.90;;;1.92;;
56345;SDS011;42246;46.096;13.644;2024-03-02T14:30:05;3.10;;;2.63;;
56345;SDS011;42246;46.096;13.644;2024-03-02T14:32:31;2.83;;;2.17;;
56345;SDS011;42246;46.096;13.644;2024-03-02T14:34:57;1.65;;;0.80;;
56345;SDS011;42246;46.096;13.644;2024-03-02T14:37:22;1.95;;;0.93;;
56345;SDS011;42246;46.096;13.644;2024-03-02T14:39:48;2.92;;;0.77;;
56345;SDS011;42246;46.096;13.644;2024-03-02T14:42:14;2.35;;;0.57;;
56345;SDS011;42246;46.096;13.644;2024-03-02T14:44:40;3.20;;;0.40;;
56345;SDS011;42246;46.096;13.644;2024-03-02T14:47:05;1.65;;;0.80;;
56345;SDS011;42246;46.096;13.644;2024-03-02T14:49:32;1.00;;;0.50;;